Time;durP1;ratioP1;P1;durP2;ratioP2;P2;SDS_P1;SDS_P2;PMS_P1;PMS_P2;Temp;Humidity;BMP_temperature;BMP_pressure;BME280_temperature;BME280_humidity;BME280_pressure;Samples;Min_cycle;Max_cycle;Signal;HPM_P1;HPM_P2
2022/08/05 00:02:21;;;;;;;5.93;3.70;;;;;;;;;;5056563;28;20293;-66
2022/08/05 00:04:48;;;;;;;4.20;3.80;;;;;;;;;;5055076;28;20567;-66
2022/08/05 00:07:23;;;;;;;3.97;3.65;;;;;;;;;;5056567;28;20232;-66
2022/08/05 00:10:11;;;;;;;4.20;3.90;;;;;;;;;;5048443;28;20638;-65
2022/08/05 00:12:40;;;;;;;4.35;3.65;;;;;;;;;;5059873;28;20213;-65
2022/08/05 00:15:23;;;;;;;4.60;3.55;;;;;;;;;;5068396;28;20241;-65
2022/08/05 00:18:11;;;;;;;5.18;3.60;;;;;;;;;;5059136;28;20218;-64
2022/08/05 00:20:48;;;;;;;5.38;3.22;;;;;;;;;;5054896;28;20862;-66
2022/08/05 00:23:15;;;;;;;5.03;3.25;;;;;;;;;;5059686;28;20205;-65
2022/08/05 00:25:42;;;;;;;3.17;2.97;;;;;;;;;;5042731;28;20235;-64
2022/08/05 00:28:12;;;;;;;3.28;2.95;;;;;;;;;;5047742;28;20241;-65
2022/08/05 00:30:40;;;;;;;6.18;2.70;;;;;;;;;;5062199;28;20291;-64
2022/08/05 00:33:10;;;;;;;3.20;3.00;;;;;;;;;;5061844;28;20210;-64
2022/08/05 00:35:57;;;;;;;3.95;2.95;;;;;;;;;;5058796;28;20235;-64
2022/08/05 00:38:45;;;;;;;4.50;2.60;;;;;;;;;;5056563;28;20315;-66
2022/08/05 00:41:12;;;;;;;4.18;2.88;;;;;;;;;;5048079;28;20702;-65
2022/08/05 00:43:40;;;;;;;2.80;2.50;;;;;;;;;;5063175;28;20783;-63
2022/08/05 00:46:13;;;;;;;3.20;2.90;;;;;;;;;;5064299;28;20218;-63
2022/08/05 00:48:42;;;;;;;3.90;2.80;;;;;;;;;;5058004;28;20320;-64
2022/08/05 00:51:18;;;;;;;4.10;2.58;;;;;;;;;;5081128;28;20231;-65
2022/08/05 00:54:05;;;;;;;3.95;2.15;;;;;;;;;;5053680;28;20225;-66
2022/08/05 00:56:33;;;;;;;2.90;2.70;;;;;;;;;;5062675;28;20213;-67
2022/08/05 00:59:00;;;;;;;2.88;2.35;;;;;;;;;;5072225;28;20364;-64
2022/08/05 01:01:33;;;;;;;4.15;2.72;;;;;;;;;;5048078;28;20198;-67
2022/08/05 01:04:14;;;;;;;3.08;2.40;;;;;;;;;;5059699;28;20269;-67
2022/08/05 01:06:47;;;;;;;2.75;2.55;;;;;;;;;;5057570;28;20675;-62
2022/08/05 01:09:18;;;;;;;2.60;2.40;;;;;;;;;;5059723;28;23340;-62
2022/08/05 01:11:49;;;;;;;3.78;2.63;;;;;;;;;;5061249;28;20208;-64
2022/08/05 01:14:22;;;;;;;3.05;2.30;;;;;;;;;;5042731;28;20233;-66
2022/08/05 01:16:54;;;;;;;2.60;2.40;;;;;;;;;;5060275;28;20205;-64
2022/08/05 01:19:21;;;;;;;3.45;2.70;;;;;;;;;;5049022;28;20230;-63
2022/08/05 01:22:18;;;;;;;5.45;2.63;;;;;;;;;;5067001;28;20763;-65
2022/08/05 01:25:02;;;;;;;3.17;2.60;;;;;;;;;;5071082;28;20229;-65
2022/08/05 01:27:57;;;;;;;2.92;2.50;;;;;;;;;;5062178;28;20226;-63
2022/08/05 01:30:28;;;;;;;3.22;2.28;;;;;;;;;;5031613;28;20212;-65
2022/08/05 01:33:02;;;;;;;3.38;2.63;;;;;;;;;;5063559;28;20205;-65
2022/08/05 01:35:32;;;;;;;2.45;2.22;;;;;;;;;;5048322;28;20627;-64
2022/08/05 01:38:20;;;;;;;4.35;2.63;;;;;;;;;;5052561;28;20222;-66
2022/08/05 01:40:57;;;;;;;5.90;3.72;;;;;;;;;;5060704;28;20213;-66
2022/08/05 01:43:26;;;;;;;3.50;2.88;;;;;;;;;;5061333;28;20208;-66
2022/08/05 01:45:55;;;;;;;2.50;2.30;;;;;;;;;;5048748;28;20244;-66
2022/08/05 01:48:26;;;;;;;4.05;3.33;;;;;;;;;;5062568;28;20229;-66
2022/08/05 01:50:55;;;;;;;2.55;2.45;;;;;;;;;;5070058;28;20202;-65
2022/08/05 01:53:23;;;;;;;3.10;2.72;;;;;;;;;;5049792;28;20336;-65
2022/08/05 01:56:11;;;;;;;4.28;2.70;;;;;;;;;;5050279;28;20284;-66
2022/08/05 01:58:40;;;;;;;3.95;3.10;;;;;;;;;;5051882;28;20238;-66
2022/08/05 02:01:13;;;;;;;3.47;2.88;;;;;;;;;;5046594;28;20672;-64
2022/08/05 02:03:48;;;;;;;4.47;2.80;;;;;;;;;;5060021;28;20204;-64
2022/08/05 02:06:16;;;;;;;3.03;2.70;;;;;;;;;;5059341;28;20209;-65
2022/08/05 02:09:04;;;;;;;3.50;3.20;;;;;;;;;;5052229;28;20371;-63
2022/08/05 02:11:52;;;;;;;3.65;3.03;;;;;;;;;;5060686;28;20300;-63
2022/08/05 02:14:30;;;;;;;2.88;2.67;;;;;;;;;;5047705;28;20271;-65
2022/08/05 02:17:04;;;;;;;4.55;2.28;;;;;;;;;;5068713;28;20204;-67
2022/08/05 02:19:35;;;;;;;5.15;2.30;;;;;;;;;;5053345;28;20201;-66
2022/08/05 02:22:18;;;;;;;2.60;2.40;;;;;;;;;;5044626;28;20202;-65
2022/08/05 02:24:56;;;;;;;3.53;2.30;;;;;;;;;;5041397;28;20201;-67
2022/08/05 02:27:26;;;;;;;3.05;2.45;;;;;;;;;;5056714;28;20221;-66
2022/08/05 02:30:14;;;;;;;2.72;2.53;;;;;;;;;;5056142;28;20220;-65
2022/08/05 02:32:43;;;;;;;3.40;2.67;;;;;;;;;;5057837;28;20221;-66
2022/08/05 02:35:12;;;;;;;2.55;2.35;;;;;;;;;;5061318;28;20229;-66
2022/08/05 02:37:46;;;;;;;6.40;2.95;;;;;;;;;;5065185;28;20243;-66
2022/08/05 02:40:21;;;;;;;2.75;2.55;;;;;;;;;;5060957;28;20206;-66
2022/08/05 02:42:51;;;;;;;4.47;2.63;;;;;;;;;;5055113;28;20301;-66
2022/08/05 02:45:21;;;;;;;3.00;2.38;;;;;;;;;;5053931;28;20217;-65
2022/08/05 02:47:53;;;;;;;2.85;2.50;;;;;;;;;;5071719;28;20252;-65
2022/08/05 02:50:40;;;;;;;2.83;2.45;;;;;;;;;;5060736;28;20229;-65
2022/08/05 02:53:11;;;;;;;3.65;2.55;;;;;;;;;;5065233;28;20655;-66
2022/08/05 02:55:49;;;;;;;3.80;3.08;;;;;;;;;;5060054;28;20240;-65
2022/08/05 02:58:26;;;;;;;4.15;2.92;;;;;;;;;;5058883;28;20297;-64
2022/08/05 03:00:58;;;;;;;6.25;2.90;;;;;;;;;;5046074;28;20280;-66
2022/08/05 03:03:28;;;;;;;4.35;2.55;;;;;;;;;;5070928;28;20229;-65
2022/08/05 03:06:15;;;;;;;4.60;2.40;;;;;;;;;;5065127;28;20244;-64
2022/08/05 03:09:03;;;;;;;4.88;2.72;;;;;;;;;;5060672;28;20282;-65
2022/08/05 03:11:31;;;;;;;2.60;2.40;;;;;;;;;;5062366;28;20209;-65
2022/08/05 03:14:18;;;;;;;3.40;2.45;;;;;;;;;;5062709;28;20225;-65
2022/08/05 03:16:45;;;;;;;3.35;2.72;;;;;;;;;;5055739;28;20201;-65
2022/08/05 03:19:14;;;;;;;3.28;3.00;;;;;;;;;;5072296;28;20748;-65
2022/08/05 03:22:00;;;;;;;3.05;2.78;;;;;;;;;;5041858;28;20215;-66
2022/08/05 03:24:28;;;;;;;7.60;2.65;;;;;;;;;;5063216;28;20210;-66
2022/08/05 03:26:58;;;;;;;3.17;2.75;;;;;;;;;;5055650;28;20236;-66
2022/08/05 03:29:25;;;;;;;3.28;2.78;;;;;;;;;;5065751;28;20225;-64
2022/08/05 03:32:18;;;;;;;5.43;2.67;;;;;;;;;;5064440;28;20217;-66
2022/08/05 03:34:46;;;;;;;2.95;2.58;;;;;;;;;;5062585;28;20316;-65
2022/08/05 03:37:18;;;;;;;3.42;2.67;;;;;;;;;;5060872;28;20297;-65
2022/08/05 03:39:54;;;;;;;2.80;2.45;;;;;;;;;;5045838;28;20275;-65
2022/08/05 03:42:27;;;;;;;3.47;2.60;;;;;;;;;;5062109;28;20205;-66
2022/08/05 03:45:15;;;;;;;3.03;2.50;;;;;;;;;;5044136;28;20280;-65
2022/08/05 03:47:49;;;;;;;4.32;2.33;;;;;;;;;;5035352;28;20218;-65
2022/08/05 03:50:17;;;;;;;4.45;2.67;;;;;;;;;;5052231;28;20259;-66
2022/08/05 03:52:50;;;;;;;3.42;2.40;;;;;;;;;;5057515;28;20206;-65
2022/08/05 03:55:40;;;;;;;3.58;2.63;;;;;;;;;;5064806;28;20274;-66
2022/08/05 03:58:28;;;;;;;4.03;2.72;;;;;;;;;;5066669;28;21760;-66
2022/08/05 04:00:56;;;;;;;4.70;2.65;;;;;;;;;;5061200;28;20225;-65
2022/08/05 04:03:27;;;;;;;4.20;3.17;;;;;;;;;;5061349;28;20198;-65
2022/08/05 04:05:56;;;;;;;6.15;2.60;;;;;;;;;;5059834;28;20250;-65
2022/08/05 04:08:26;;;;;;;2.80;2.58;;;;;;;;;;5071960;28;20240;-65
2022/08/05 04:11:06;;;;;;;3.53;2.60;;;;;;;;;;5068152;28;20201;-65
2022/08/05 04:13:38;;;;;;;4.75;2.80;;;;;;;;;;5052283;28;20213;-65
2022/08/05 04:16:18;;;;;;;3.65;2.42;;;;;;;;;;5050666;28;20280;-65
2022/08/05 04:18:51;;;;;;;6.50;2.70;;;;;;;;;;5062570;28;20236;-65
2022/08/05 04:21:21;;;;;;;3.17;2.45;;;;;;;;;;5063765;28;20209;-65
2022/08/05 04:24:08;;;;;;;3.00;2.70;;;;;;;;;;5046984;28;20251;-65
2022/08/05 04:26:48;;;;;;;2.58;2.38;;;;;;;;;;5065906;28;20201;-65
2022/08/05 04:29:16;;;;;;;5.18;2.60;;;;;;;;;;5066764;28;20591;-65
2022/08/05 04:31:43;;;;;;;6.03;2.80;;;;;;;;;;5063113;28;20546;-65
2022/08/05 04:34:14;;;;;;;3.17;2.58;;;;;;;;;;5066988;28;20205;-65
2022/08/05 04:36:59;;;;;;;5.05;2.67;;;;;;;;;;5058406;28;20285;-65
2022/08/05 04:39:33;;;;;;;4.40;2.80;;;;;;;;;;5060801;28;20256;-66
2022/08/05 04:42:02;;;;;;;4.85;2.83;;;;;;;;;;5069473;28;20197;-65
2022/08/05 04:44:29;;;;;;;5.00;3.13;;;;;;;;;;5058788;28;20205;-64
2022/08/05 04:46:57;;;;;;;4.32;3.03;;;;;;;;;;5047711;28;20213;-66
2022/08/05 04:49:26;;;;;;;6.25;2.80;;;;;;;;;;5058480;28;20627;-66
2022/08/05 04:52:13;;;;;;;5.35;2.90;;;;;;;;;;5048129;28;20207;-66
2022/08/05 04:54:41;;;;;;;6.65;2.90;;;;;;;;;;5056477;28;20763;-65
2022/08/05 04:57:08;;;;;;;5.70;2.92;;;;;;;;;;5058757;28;21178;-65
2022/08/05 04:59:36;;;;;;;4.95;2.80;;;;;;;;;;5051444;28;20201;-65
2022/08/05 05:02:07;;;;;;;8.65;3.08;;;;;;;;;;5063866;28;20198;-65
2022/08/05 05:04:55;;;;;;;4.53;3.05;;;;;;;;;;5066975;28;20242;-65
2022/08/05 05:07:29;;;;;;;5.55;2.88;;;;;;;;;;5055087;28;20719;-65
2022/08/05 05:09:58;;;;;;;3.97;2.72;;;;;;;;;;5045856;28;20201;-65
2022/08/05 05:12:29;;;;;;;6.30;3.00;;;;;;;;;;5051077;28;20209;-65
2022/08/05 05:14:56;;;;;;;5.32;3.00;;;;;;;;;;5046219;28;20607;-65
2022/08/05 05:17:23;;;;;;;4.55;3.00;;;;;;;;;;5056900;28;20224;-65
2022/08/05 05:20:12;;;;;;;5.78;3.10;;;;;;;;;;5060606;28;20774;-65
2022/08/05 05:22:40;;;;;;;4.15;3.00;;;;;;;;;;5064713;28;20266;-65
2022/08/05 05:25:11;;;;;;;5.53;2.85;;;;;;;;;;5060508;28;20263;-64
2022/08/05 05:27:44;;;;;;;3.65;2.80;;;;;;;;;;5059266;28;20226;-65
2022/08/05 05:30:22;;;;;;;3.30;2.60;;;;;;;;;;5065684;28;20679;-66
2022/08/05 05:33:00;;;;;;;4.63;2.90;;;;;;;;;;5046801;28;20202;-67
2022/08/05 05:35:44;;;;;;;8.13;2.92;;;;;;;;;;5056081;28;20275;-66
2022/08/05 05:38:11;;;;;;;3.30;2.92;;;;;;;;;;5040604;28;20844;-65
2022/08/05 05:40:49;;;;;;;7.60;3.00;;;;;;;;;;5058993;28;20205;-64
2022/08/05 05:43:21;;;;;;;3.92;2.63;;;;;;;;;;5057319;28;20213;-64
2022/08/05 05:46:09;;;;;;;5.28;3.00;;;;;;;;;;5060550;28;20221;-65
2022/08/05 05:48:44;;;;;;;4.35;3.38;;;;;;;;;;5057945;28;20220;-66
2022/08/05 05:51:21;;;;;;;7.55;3.08;;;;;;;;;;5060788;28;20205;-66
2022/08/05 05:53:49;;;;;;;5.80;2.90;;;;;;;;;;5065732;28;20200;-67
2022/08/05 05:56:26;;;;;;;4.70;3.10;;;;;;;;;;5051953;28;20383;-63
2022/08/05 05:59:04;;;;;;;8.32;3.00;;;;;;;;;;5062430;28;20234;-66
2022/08/05 06:01:34;;;;;;;6.72;3.08;;;;;;;;;;5043327;28;20204;-64
2022/08/05 06:04:05;;;;;;;5.68;3.33;;;;;;;;;;5054123;28;20200;-64
2022/08/05 06:06:33;;;;;;;6.03;2.90;;;;;;;;;;5043036;28;20205;-67
2022/08/05 06:09:02;;;;;;;3.25;2.95;;;;;;;;;;5072117;28;20326;-67
2022/08/05 06:11:30;;;;;;;6.70;3.00;;;;;;;;;;5065745;28;20226;-65
2022/08/05 06:13:57;;;;;;;4.10;3.17;;;;;;;;;;5046173;28;20212;-65
2022/08/05 06:16:26;;;;;;;3.30;3.00;;;;;;;;;;5062372;28;20324;-66
2022/08/05 06:19:03;;;;;;;6.07;3.05;;;;;;;;;;5061071;28;20728;-64
2022/08/05 06:21:33;;;;;;;5.28;3.78;;;;;;;;;;5067436;28;20255;-64
2022/08/05 06:24:06;;;;;;;4.32;3.20;;;;;;;;;;5043213;28;20606;-65
2022/08/05 06:26:38;;;;;;;4.50;3.00;;;;;;;;;;5078294;28;20209;-65
2022/08/05 06:29:18;;;;;;;5.65;3.65;;;;;;;;;;5041350;28;20316;-64
2022/08/05 06:32:05;;;;;;;7.32;3.20;;;;;;;;;;5046170;28;20237;-64
2022/08/05 06:34:53;;;;;;;5.57;3.00;;;;;;;;;;5048159;28;20232;-64
2022/08/05 06:37:22;;;;;;;7.18;3.30;;;;;;;;;;5074836;28;20639;-65
2022/08/05 06:40:10;;;;;;;6.90;3.83;;;;;;;;;;5047200;28;20238;-65
2022/08/05 06:42:38;;;;;;;5.47;3.70;;;;;;;;;;5044428;28;20293;-64
2022/08/05 06:45:06;;;;;;;5.63;3.90;;;;;;;;;;5066457;28;20219;-65
2022/08/05 06:47:35;;;;;;;7.53;4.10;;;;;;;;;;5077271;28;20229;-65
2022/08/05 06:50:23;;;;;;;6.13;3.67;;;;;;;;;;5055224;28;20209;-65
2022/08/05 06:52:51;;;;;;;6.13;3.72;;;;;;;;;;5070043;28;20775;-65
2022/08/05 06:55:37;;;;;;;4.85;3.95;;;;;;;;;;5056314;28;20237;-65
2022/08/05 06:58:08;;;;;;;4.85;3.53;;;;;;;;;;5045455;28;20587;-65
2022/08/05 07:00:59;;;;;;;7.82;3.67;;;;;;;;;;5064167;28;20547;-65
2022/08/05 07:03:29;;;;;;;4.63;3.30;;;;;;;;;;5059876;28;20204;-65
2022/08/05 07:06:01;;;;;;;6.45;3.60;;;;;;;;;;5042881;28;20210;-65
2022/08/05 07:08:40;;;;;;;7.40;3.85;;;;;;;;;;5056417;28;20328;-65
2022/08/05 07:11:08;;;;;;;4.05;3.65;;;;;;;;;;5064832;28;20201;-65
2022/08/05 07:19:35;;;;;;;7.20;4.00;;;;;;;;;;5066520;28;20193;-65
2022/08/05 07:22:22;;;;;;;8.02;3.75;;;;;;;;;;5064244;28;20237;-65
2022/08/05 07:24:57;;;;;;;5.53;4.10;;;;;;;;;;5054168;28;20656;-65
2022/08/05 07:27:24;;;;;;;5.50;3.95;;;;;;;;;;5049102;28;20237;-65
2022/08/05 07:30:11;;;;;;;4.07;3.65;;;;;;;;;;5064337;28;20627;-65
2022/08/05 07:32:56;;;;;;;3.58;3.25;;;;;;;;;;5030230;28;20208;-65
2022/08/05 07:35:24;;;;;;;5.78;3.00;;;;;;;;;;5045752;28;20694;-66
2022/08/05 07:38:11;;;;;;;2.80;2.60;;;;;;;;;;5040753;28;20244;-65
2022/08/05 07:40:59;;;;;;;3.95;2.90;;;;;;;;;;5048282;28;20287;-65
2022/08/05 07:43:46;;;;;;;3.63;2.70;;;;;;;;;;5052586;28;20208;-64
2022/08/05 07:46:14;;;;;;;2.65;2.38;;;;;;;;;;5051066;28;20268;-64
2022/08/05 07:48:52;;;;;;;3.30;2.53;;;;;;;;;;5082787;28;20434;-65
2022/08/05 07:51:35;;;;;;;2.80;2.15;;;;;;;;;;5074219;28;20245;-65
2022/08/05 07:54:22;;;;;;;4.88;2.20;;;;;;;;;;5080374;28;20255;-65
2022/08/05 07:56:56;;;;;;;2.60;1.98;;;;;;;;;;5046343;28;20233;-64
2022/08/05 07:59:41;;;;;;;2.50;2.30;;;;;;;;;;5046709;28;20205;-65
2022/08/05 08:02:09;;;;;;;3.05;2.08;;;;;;;;;;5062112;28;20230;-65
2022/08/05 08:04:44;;;;;;;4.82;2.63;;;;;;;;;;5068773;28;20197;-64
2022/08/05 08:07:12;;;;;;;5.22;2.60;;;;;;;;;;5058632;28;20213;-65
2022/08/05 08:09:39;;;;;;;6.65;2.85;;;;;;;;;;5052736;28;20227;-64
2022/08/05 08:12:07;;;;;;;5.35;2.85;;;;;;;;;;5064163;28;20216;-65
2022/08/05 08:14:54;;;;;;;3.03;2.80;;;;;;;;;;5054978;28;20206;-65
2022/08/05 08:17:22;;;;;;;3.13;2.92;;;;;;;;;;5048250;28;20234;-65
2022/08/05 08:19:54;;;;;;;3.63;3.10;;;;;;;;;;5075722;28;20224;-64
2022/08/05 08:22:41;;;;;;;6.65;3.58;;;;;;;;;;5053065;28;20301;-64
2022/08/05 08:25:09;;;;;;;3.10;2.80;;;;;;;;;;5074474;28;20210;-65
2022/08/05 08:27:43;;;;;;;3.20;2.85;;;;;;;;;;5070471;28;20682;-65
2022/08/05 08:30:15;;;;;;;5.60;3.38;;;;;;;;;;5054388;28;20205;-64
2022/08/05 08:33:00;;;;;;;3.60;2.60;;;;;;;;;;5057777;28;20194;-65
2022/08/05 08:35:31;;;;;;;4.03;2.20;;;;;;;;;;5047703;28;20203;-64
2022/08/05 08:38:07;;;;;;;3.08;2.78;;;;;;;;;;5066334;28;20601;-65
2022/08/05 08:40:43;;;;;;;3.03;2.30;;;;;;;;;;5052758;28;20206;-64
2022/08/05 08:43:18;;;;;;;2.58;2.38;;;;;;;;;;5067839;28;20208;-64
2022/08/05 08:46:06;;;;;;;3.67;2.40;;;;;;;;;;5071934;28;20218;-64
2022/08/05 08:48:42;;;;;;;5.30;3.15;;;;;;;;;;5068224;28;20225;-64
2022/08/05 08:51:31;;;;;;;3.33;2.97;;;;;;;;;;5048878;28;20280;-65
2022/08/05 08:54:19;;;;;;;2.58;2.20;;;;;;;;;;5056900;28;20209;-64
2022/08/05 08:56:46;;;;;;;2.55;2.30;;;;;;;;;;5079065;28;20230;-64
2022/08/05 08:59:17;;;;;;;3.25;2.50;;;;;;;;;;5077760;28;20255;-65
2022/08/05 09:01:47;;;;;;;3.80;2.35;;;;;;;;;;5075717;28;20239;-65
2022/08/05 09:04:24;;;;;;;2.35;2.25;;;;;;;;;;5045371;28;20202;-65
2022/08/05 09:06:57;;;;;;;4.13;2.58;;;;;;;;;;5061248;28;20314;-65
2022/08/05 09:09:27;;;;;;;2.70;2.03;;;;;;;;;;5059614;28;20317;-65
2022/08/05 09:12:02;;;;;;;2.50;2.15;;;;;;;;;;5069336;28;20758;-65
2022/08/05 09:14:50;;;;;;;3.75;1.90;;;;;;;;;;5039791;28;20223;-65
2022/08/05 09:17:25;;;;;;;2.28;2.00;;;;;;;;;;5056630;28;20238;-64
2022/08/05 09:20:12;;;;;;;2.40;2.05;;;;;;;;;;5059145;28;20209;-64
2022/08/05 09:23:04;;;;;;;3.63;1.88;;;;;;;;;;5072045;28;20593;-65
2022/08/05 09:25:35;;;;;;;2.22;2.13;;;;;;;;;;5041855;28;20201;-64
2022/08/05 09:28:27;;;;;;;2.22;2.03;;;;;;;;;;5069978;28;20264;-65
2022/08/05 09:31:04;;;;;;;2.80;2.58;;;;;;;;;;5070176;28;20621;-64
2022/08/05 09:33:57;;;;;;;2.22;2.00;;;;;;;;;;5055221;28;20607;-65
2022/08/05 09:36:37;;;;;;;3.38;2.72;;;;;;;;;;5067481;28;20236;-64
2022/08/05 09:39:25;;;;;;;2.17;1.92;;;;;;;;;;5048680;28;20663;-64
2022/08/05 09:42:11;;;;;;;3.45;2.45;;;;;;;;;;5070727;28;20326;-64
2022/08/05 09:44:51;;;;;;;2.60;2.20;;;;;;;;;;5067453;28;20209;-65
2022/08/05 09:47:24;;;;;;;4.35;2.25;;;;;;;;;;5046586;28;20214;-65
2022/08/05 09:49:56;;;;;;;2.45;2.28;;;;;;;;;;5065001;28;20206;-65
2022/08/05 09:52:30;;;;;;;2.40;2.20;;;;;;;;;;5058008;28;20259;-64
2022/08/05 09:55:00;;;;;;;2.60;2.30;;;;;;;;;;5053408;28;20217;-64
2022/08/05 09:57:47;;;;;;;2.40;2.20;;;;;;;;;;5049852;28;20236;-64
2022/08/05 10:00:24;;;;;;;2.53;2.10;;;;;;;;;;5063570;28;20692;-64
2022/08/05 10:02:53;;;;;;;4.10;2.20;;;;;;;;;;5062146;28;20258;-64
2022/08/05 10:05:25;;;;;;;2.42;2.22;;;;;;;;;;5060689;28;20205;-64
2022/08/05 10:07:53;;;;;;;2.28;2.08;;;;;;;;;;5035424;28;20229;-64
2022/08/05 10:10:44;;;;;;;2.30;2.10;;;;;;;;;;5058415;28;20616;-65
2022/08/05 10:13:28;;;;;;;3.38;2.20;;;;;;;;;;5065994;28;20545;-65
2022/08/05 10:16:30;;;;;;;2.63;2.30;;;;;;;;;;5066372;28;20588;-65
2022/08/05 10:19:00;;;;;;;4.53;2.42;;;;;;;;;;5066693;28;20228;-64
2022/08/05 10:21:36;;;;;;;3.17;2.00;;;;;;;;;;5068713;28;20709;-64
2022/08/05 10:24:12;;;;;;;2.20;2.00;;;;;;;;;;5058926;28;20211;-64
2022/08/05 10:26:42;;;;;;;2.88;2.10;;;;;;;;;;5064264;28;20229;-64
2022/08/05 10:29:20;;;;;;;2.15;1.95;;;;;;;;;;5059745;28;20324;-64
2022/08/05 10:32:08;;;;;;;2.10;1.90;;;;;;;;;;5055227;28;20683;-64
2022/08/05 10:34:57;;;;;;;4.97;4.50;;;;;;;;;;5061315;28;20264;-65
2022/08/05 10:37:29;;;;;;;2.22;1.95;;;;;;;;;;5060328;28;20231;-64
2022/08/05 10:40:18;;;;;;;2.60;2.25;;;;;;;;;;5048423;28;20204;-66
2022/08/05 10:42:52;;;;;;;2.17;1.98;;;;;;;;;;5057822;28;20200;-65
2022/08/05 10:45:29;;;;;;;4.35;2.08;;;;;;;;;;5059296;28;20205;-66
2022/08/05 10:48:37;;;;;;;2.35;2.13;;;;;;;;;;5059228;28;20242;-66
2022/08/05 10:51:41;;;;;;;1.80;1.70;;;;;;;;;;5040371;28;20206;-66
2022/08/05 10:54:45;;;;;;;5.18;2.20;;;;;;;;;;5061885;28;20307;-66
2022/08/05 10:57:27;;;;;;;2.35;2.17;;;;;;;;;;5042602;28;20773;-65
2022/08/05 11:00:18;;;;;;;2.30;2.10;;;;;;;;;;5056753;28;20205;-64
2022/08/05 11:03:04;;;;;;;2.83;2.22;;;;;;;;;;5063807;28;20197;-64
2022/08/05 11:06:04;;;;;;;3.00;2.13;;;;;;;;;;5060422;28;20201;-66
2022/08/05 11:08:31;;;;;;;2.42;1.88;;;;;;;;;;5045437;28;20640;-66
2022/08/05 11:11:09;;;;;;;2.17;1.98;;;;;;;;;;5062996;28;20208;-65
2022/08/05 11:13:43;;;;;;;2.20;2.00;;;;;;;;;;5067952;28;20205;-66
2022/08/05 11:16:24;;;;;;;2.65;1.88;;;;;;;;;;5055317;28;20255;-65
2022/08/05 11:19:28;;;;;;;2.05;1.95;;;;;;;;;;5064730;28;20225;-65
2022/08/05 11:22:34;;;;;;;2.28;2.00;;;;;;;;;;5064704;28;20258;-65
2022/08/05 11:25:20;;;;;;;2.60;2.08;;;;;;;;;;5058211;28;20205;-66
2022/08/05 11:28:11;;;;;;;2.97;2.30;;;;;;;;;;5054179;28;20224;-65
2022/08/05 11:30:55;;;;;;;2.55;2.15;;;;;;;;;;5058520;28;20436;-66
2022/08/05 11:33:25;;;;;;;2.35;2.00;;;;;;;;;;5059031;28;20206;-66
2022/08/05 11:36:13;;;;;;;3.35;2.55;;;;;;;;;;5060264;28;20215;-66
2022/08/05 11:38:41;;;;;;;4.93;2.20;;;;;;;;;;5063287;28;20755;-66
2022/08/05 11:41:16;;;;;;;2.17;2.08;;;;;;;;;;5049519;28;21727;-66
2022/08/05 11:44:11;;;;;;;2.08;1.90;;;;;;;;;;5066706;28;20205;-66
2022/08/05 11:46:58;;;;;;;2.50;2.08;;;;;;;;;;5065069;28;20279;-65
2022/08/05 11:49:41;;;;;;;2.65;2.20;;;;;;;;;;5041328;28;20699;-65
2022/08/05 11:52:09;;;;;;;2.60;2.30;;;;;;;;;;5059650;28;20309;-64
2022/08/05 11:54:39;;;;;;;2.80;1.98;;;;;;;;;;5051511;28;20205;-64
2022/08/05 11:57:09;;;;;;;3.65;2.40;;;;;;;;;;5052444;28;20228;-64
2022/08/05 11:59:57;;;;;;;2.67;2.20;;;;;;;;;;5052961;28;20213;-65
2022/08/05 12:02:31;;;;;;;2.63;2.13;;;;;;;;;;5051842;28;20197;-65
2022/08/05 12:05:02;;;;;;;3.17;2.20;;;;;;;;;;5067555;28;20670;-65
2022/08/05 12:07:47;;;;;;;2.70;2.47;;;;;;;;;;5057905;28;20313;-65
2022/08/05 12:10:35;;;;;;;2.80;2.60;;;;;;;;;;5053979;28;20228;-66
2022/08/05 12:13:12;;;;;;;2.55;2.35;;;;;;;;;;5058417;28;20255;-66
2022/08/05 12:15:44;;;;;;;2.70;2.50;;;;;;;;;;5045283;28;20264;-66
2022/08/05 12:18:19;;;;;;;2.60;2.40;;;;;;;;;;5047943;28;20766;-66
2022/08/05 12:20:52;;;;;;;2.53;2.33;;;;;;;;;;5043216;28;20249;-65
2022/08/05 12:23:22;;;;;;;5.00;2.65;;;;;;;;;;5059635;28;20301;-66
2022/08/05 12:25:54;;;;;;;3.33;2.20;;;;;;;;;;5062420;28;20749;-66
2022/08/05 12:28:33;;;;;;;4.43;2.20;;;;;;;;;;5054805;28;20225;-66
2022/08/05 12:31:03;;;;;;;4.93;2.40;;;;;;;;;;5067580;28;20205;-66
2022/08/05 12:33:31;;;;;;;4.10;2.17;;;;;;;;;;5067968;28;20212;-66
2022/08/05 12:36:05;;;;;;;2.65;2.22;;;;;;;;;;5058999;28;20198;-66
2022/08/05 12:38:38;;;;;;;2.22;2.03;;;;;;;;;;5048509;28;20316;-65
2022/08/05 12:41:16;;;;;;;3.10;2.40;;;;;;;;;;5042638;28;20239;-65
2022/08/05 12:43:54;;;;;;;2.55;2.35;;;;;;;;;;5055549;28;20209;-66
2022/08/05 12:46:26;;;;;;;2.50;2.30;;;;;;;;;;5060353;28;20256;-65
2022/08/05 12:48:59;;;;;;;3.40;2.53;;;;;;;;;;5063348;28;20231;-67
2022/08/05 12:51:27;;;;;;;2.30;2.20;;;;;;;;;;5048274;28;20205;-66
2022/08/05 12:54:22;;;;;;;2.47;2.28;;;;;;;;;;5056526;28;20198;-66
2022/08/05 12:57:00;;;;;;;3.33;2.65;;;;;;;;;;5062616;28;20251;-66
2022/08/05 12:59:31;;;;;;;2.65;2.15;;;;;;;;;;5065142;28;20256;-66
2022/08/05 13:02:23;;;;;;;4.32;2.55;;;;;;;;;;5059502;28;20205;-66
2022/08/05 13:04:56;;;;;;;3.83;2.10;;;;;;;;;;5061465;28;20229;-65
2022/08/05 13:07:26;;;;;;;2.33;2.13;;;;;;;;;;5073335;28;20288;-66
2022/08/05 13:10:15;;;;;;;4.05;2.50;;;;;;;;;;5053319;28;20279;-67
2022/08/05 13:12:46;;;;;;;3.17;2.35;;;;;;;;;;5072308;28;20578;-65
2022/08/05 13:15:29;;;;;;;2.45;2.22;;;;;;;;;;5060390;28;20205;-65
2022/08/05 13:18:08;;;;;;;4.32;2.40;;;;;;;;;;5056662;28;20228;-65
2022/08/05 13:20:36;;;;;;;3.25;2.40;;;;;;;;;;5061223;28;20293;-65
2022/08/05 13:23:06;;;;;;;4.85;2.40;;;;;;;;;;5064049;28;20198;-65
2022/08/05 13:25:34;;;;;;;3.53;2.40;;;;;;;;;;5074395;28;20205;-64
2022/08/05 13:28:21;;;;;;;2.92;2.63;;;;;;;;;;5058416;28;20225;-65
2022/08/05 13:30:48;;;;;;;4.47;2.40;;;;;;;;;;5046350;28;20295;-65
2022/08/05 13:33:19;;;;;;;2.22;2.13;;;;;;;;;;5059179;28;20201;-65
2022/08/05 13:36:06;;;;;;;3.47;2.30;;;;;;;;;;5065945;28;20210;-66
2022/08/05 13:38:35;;;;;;;3.28;2.38;;;;;;;;;;5042475;28;20635;-66
2022/08/05 13:41:09;;;;;;;2.70;2.50;;;;;;;;;;5063144;28;20259;-66
2022/08/05 13:43:37;;;;;;;3.85;2.75;;;;;;;;;;5061093;28;20301;-66
2022/08/05 13:46:12;;;;;;;2.92;2.58;;;;;;;;;;5062530;28;20216;-65
2022/08/05 13:48:39;;;;;;;4.07;2.42;;;;;;;;;;5064061;28;20290;-67
2022/08/05 13:51:31;;;;;;;5.45;2.50;;;;;;;;;;5048515;28;20298;-65
2022/08/05 13:54:10;;;;;;;3.30;2.70;;;;;;;;;;5065988;28;20212;-65
2022/08/05 13:56:41;;;;;;;2.55;2.33;;;;;;;;;;5059817;28;21089;-65
2022/08/05 13:59:16;;;;;;;3.08;2.78;;;;;;;;;;5057124;28;20268;-66
2022/08/05 14:01:47;;;;;;;3.15;2.45;;;;;;;;;;5046892;28;20292;-66
2022/08/05 14:07:28;;;;;;;2.78;2.28;;;;;;;;;;5061532;28;20226;-66
2022/08/05 14:10:16;;;;;;;2.78;2.60;;;;;;;;;;5056977;28;20233;-66
2022/08/05 14:12:55;;;;;;;2.85;2.60;;;;;;;;;;5053894;28;20244;-66
2022/08/05 14:15:24;;;;;;;4.32;2.38;;;;;;;;;;5050774;28;20305;-66
2022/08/05 14:18:11;;;;;;;2.75;2.22;;;;;;;;;;5042270;28;22259;-66
2022/08/05 14:20:45;;;;;;;2.88;2.40;;;;;;;;;;5058873;28;20293;-66
2022/08/05 14:23:15;;;;;;;3.35;2.30;;;;;;;;;;5059033;28;20213;-65
2022/08/05 14:25:51;;;;;;;4.00;2.47;;;;;;;;;;5059859;28;20252;-66
2022/08/05 14:28:20;;;;;;;2.75;2.55;;;;;;;;;;5043474;28;20230;-67
2022/08/05 14:30:53;;;;;;;2.70;2.50;;;;;;;;;;5046671;28;20314;-67
2022/08/05 14:33:22;;;;;;;2.45;2.25;;;;;;;;;;5045798;28;20209;-65
2022/08/05 14:35:50;;;;;;;7.30;3.08;;;;;;;;;;5041064;28;20230;-65
2022/08/05 14:38:21;;;;;;;2.50;2.30;;;;;;;;;;5066008;28;20295;-65
2022/08/05 14:41:05;;;;;;;4.55;2.70;;;;;;;;;;5076310;28;20277;-65
2022/08/05 14:43:35;;;;;;;2.97;2.47;;;;;;;;;;5051767;28;20947;-66
2022/08/05 14:46:23;;;;;;;3.05;2.75;;;;;;;;;;5053565;28;20205;-66
2022/08/05 14:48:55;;;;;;;3.22;2.92;;;;;;;;;;5047129;28;20257;-66
2022/08/05 14:51:23;;;;;;;2.72;2.50;;;;;;;;;;5049611;28;20234;-66
2022/08/05 14:53:57;;;;;;;3.33;2.65;;;;;;;;;;5045936;28;20214;-66
2022/08/05 14:56:44;;;;;;;3.53;2.58;;;;;;;;;;5037381;28;20263;-65
2022/08/05 14:59:13;;;;;;;4.88;2.67;;;;;;;;;;5058830;28;20286;-66
2022/08/05 15:01:41;;;;;;;5.63;3.17;;;;;;;;;;5066777;28;20745;-65
2022/08/05 15:04:16;;;;;;;6.13;3.13;;;;;;;;;;5056067;28;20217;-66
2022/08/05 15:06:48;;;;;;;3.65;2.60;;;;;;;;;;5060360;28;20203;-66
2022/08/05 15:09:17;;;;;;;2.90;2.70;;;;;;;;;;5040446;28;20275;-66
2022/08/05 15:12:04;;;;;;;2.63;2.42;;;;;;;;;;5054228;28;20491;-66
2022/08/05 15:14:34;;;;;;;4.13;2.80;;;;;;;;;;5045593;28;20209;-66
2022/08/05 15:17:15;;;;;;;4.63;2.58;;;;;;;;;;5046107;28;20237;-66
2022/08/05 15:20:04;;;;;;;7.63;2.92;;;;;;;;;;5052824;28;20199;-66
2022/08/05 15:22:31;;;;;;;3.85;2.53;;;;;;;;;;5051889;28;20571;-65
2022/08/05 15:24:59;;;;;;;6.55;2.47;;;;;;;;;;5041854;28;20202;-65
2022/08/05 15:27:40;;;;;;;5.10;2.50;;;;;;;;;;5044292;28;20237;-66
2022/08/05 15:30:09;;;;;;;3.95;2.72;;;;;;;;;;5049749;28;20218;-66
2022/08/05 15:32:42;;;;;;;4.57;2.63;;;;;;;;;;5056896;28;20427;-66
2022/08/05 15:35:10;;;;;;;2.72;2.53;;;;;;;;;;5046748;28;20302;-66
2022/08/05 15:37:41;;;;;;;2.67;2.47;;;;;;;;;;5050029;28;20229;-66
2022/08/05 15:40:28;;;;;;;4.28;2.50;;;;;;;;;;5060415;28;20213;-66
2022/08/05 15:43:15;;;;;;;4.85;2.65;;;;;;;;;;5038637;28;20210;-66
2022/08/05 15:45:46;;;;;;;2.95;2.72;;;;;;;;;;5051636;28;20206;-66
2022/08/05 15:48:28;;;;;;;3.97;3.53;;;;;;;;;;5034942;28;20236;-65